createdAt,value
2023-08-15T00:01:20.869Z,60.72
2023-08-15T00:02:54.251Z,60.82
2023-08-15T00:04:26.572Z,61.14
2023-08-15T00:05:59.817Z,61.15
2023-08-15T00:07:33.521Z,61.40
2023-08-15T00:09:06.977Z,61.40
2023-08-15T00:10:39.225Z,61.58
2023-08-15T00:12:12.346Z,61.78
2023-08-15T00:13:44.801Z,61.88
2023-08-15T00:15:18.286Z,61.88
2023-08-15T00:16:50.559Z,61.94
2023-08-15T00:18:23.989Z,61.73
2023-08-15T00:19:56.188Z,61.98
2023-08-15T00:21:29.414Z,62.04
2023-08-15T00:23:04.030Z,62.07
2023-08-15T00:24:37.614Z,62.32
2023-08-15T00:26:10.060Z,62.42
2023-08-15T00:27:43.316Z,62.71
2023-08-15T00:29:15.761Z,62.29
2023-08-15T00:30:49.240Z,62.38
2023-08-15T00:32:21.556Z,62.27
2023-08-15T00:33:56.575Z,62.06
2023-08-15T00:35:28.793Z,62.06
2023-08-15T00:37:02.167Z,62.06
2023-08-15T00:38:35.741Z,62.03
2023-08-15T00:40:10.232Z,62.01
2023-08-15T00:41:42.534Z,62.03
2023-08-15T00:43:18.882Z,61.92
2023-08-15T00:44:51.416Z,62.16
2023-08-15T00:46:25.420Z,62.07
2023-08-15T00:47:58.136Z,62.13
2023-08-15T00:49:31.762Z,62.27
2023-08-15T00:51:04.073Z,62.35
2023-08-15T00:52:37.824Z,62.10
2023-08-15T00:54:11.376Z,62.14
2023-08-15T00:55:46.486Z,62.11
2023-08-15T00:57:20.045Z,62.35
2023-08-15T00:58:54.012Z,62.57
2023-08-15T01:00:27.041Z,62.57
2023-08-15T01:02:01.707Z,62.53
2023-08-15T01:03:34.122Z,62.55
2023-08-15T01:05:08.456Z,62.80
2023-08-15T01:06:40.791Z,63.54
2023-08-15T01:08:14.175Z,63.12
2023-08-15T01:09:47.902Z,63.28
2023-08-15T01:11:21.294Z,63.45
2023-08-15T01:13:02.532Z,65.01
2023-08-15T01:14:42.437Z,64.31
2023-08-15T01:16:20.423Z,63.41
2023-08-15T01:18:02.054Z,64.77
2023-08-15T01:19:40.579Z,64.17
2023-08-15T01:21:23.409Z,63.77
2023-08-15T01:22:59.602Z,63.68
2023-08-15T01:24:34.381Z,64.20
2023-08-15T01:26:07.004Z,63.88
2023-08-15T01:27:41.673Z,64.18
2023-08-15T01:29:14.974Z,64.59
2023-08-15T01:30:54.627Z,64.68
2023-08-15T01:32:36.121Z,64.93
2023-08-15T01:34:17.173Z,64.81
2023-08-15T01:35:57.628Z,64.68
2023-08-15T01:37:31.443Z,64.54
2023-08-15T01:39:07.042Z,64.44
2023-08-15T01:40:43.053Z,64.38
2023-08-15T01:42:17.328Z,64.39
2023-08-15T01:43:50.528Z,64.37
2023-08-15T01:45:27.086Z,64.42
2023-08-15T01:47:01.088Z,64.22
2023-08-15T01:48:34.303Z,64.45
2023-08-15T01:50:08.055Z,64.26
2023-08-15T01:51:41.247Z,64.00
2023-08-15T01:53:13.704Z,64.84
2023-08-15T01:54:46.978Z,64.52
2023-08-15T01:56:20.706Z,64.71
2023-08-15T01:57:53.917Z,65.04
2023-08-15T01:59:27.090Z,64.91
2023-08-15T02:00:59.934Z,64.51
2023-08-15T02:02:33.581Z,64.41
2023-08-15T02:04:06.087Z,64.45
2023-08-15T02:05:39.353Z,65.00
2023-08-15T02:07:11.552Z,64.55
2023-08-15T02:08:44.950Z,64.53
2023-08-15T02:10:17.297Z,64.64
2023-08-15T02:11:56.366Z,64.45
2023-08-15T02:13:33.641Z,64.50
2023-08-15T02:15:08.194Z,64.31
2023-08-15T02:16:40.387Z,64.22
2023-08-15T02:18:13.710Z,64.65
2023-08-15T02:19:45.920Z,64.43
2023-08-15T02:21:19.369Z,64.50
2023-08-15T02:22:52.740Z,64.41
2023-08-15T02:24:25.968Z,64.43
2023-08-15T02:25:58.233Z,64.55
2023-08-15T02:27:33.106Z,65.01
2023-08-15T02:29:05.559Z,64.76
2023-08-15T02:30:38.834Z,64.82
2023-08-15T02:32:11.036Z,64.78
2023-08-15T02:33:44.467Z,64.86
2023-08-15T02:35:16.943Z,65.00
2023-08-15T02:36:52.705Z,65.21
2023-08-15T02:38:24.908Z,65.73
2023-08-15T02:39:58.365Z,65.22
2023-08-15T02:41:31.250Z,65.26
2023-08-15T02:43:06.228Z,65.45
2023-08-15T02:44:38.348Z,65.42
2023-08-15T02:46:11.753Z,65.29
2023-08-15T02:47:43.976Z,65.67
2023-08-15T02:49:17.181Z,65.67
2023-08-15T02:50:50.570Z,65.21
2023-08-15T02:52:22.886Z,65.26
2023-08-15T02:53:56.316Z,65.46
2023-08-15T02:55:28.496Z,65.30
2023-08-15T02:57:01.831Z,65.70
2023-08-15T02:58:35.665Z,65.65
2023-08-15T03:00:10.497Z,65.74
2023-08-15T03:01:43.913Z,65.90
2023-08-15T03:03:16.308Z,65.83
2023-08-15T03:04:49.815Z,65.90
2023-08-15T03:06:22.012Z,65.82
2023-08-15T03:07:55.264Z,65.84
2023-08-15T03:09:27.419Z,65.85
2023-08-15T03:11:01.102Z,65.81
2023-08-15T03:12:33.540Z,65.82
2023-08-15T03:14:08.173Z,65.82
2023-08-15T03:15:41.036Z,65.71
2023-08-15T03:17:15.099Z,65.64
2023-08-15T03:18:47.318Z,65.82
2023-08-15T03:20:20.913Z,65.77
2023-08-15T03:21:53.181Z,65.79
2023-08-15T03:23:27.259Z,65.62
2023-08-15T03:25:00.659Z,65.72
2023-08-15T03:26:33.346Z,66.11
2023-08-15T03:28:06.850Z,66.15
2023-08-15T03:29:40.652Z,66.22
2023-08-15T03:31:14.109Z,66.71
2023-08-15T03:32:58.957Z,66.03
2023-08-15T03:34:31.875Z,66.49
2023-08-15T03:36:05.997Z,66.54
2023-08-15T03:37:39.544Z,66.87
2023-08-15T03:39:12.804Z,67.00
2023-08-15T03:40:45.593Z,67.49
2023-08-15T03:42:19.535Z,67.52
2023-08-15T03:43:53.041Z,67.87
2023-08-15T03:45:26.681Z,67.60
2023-08-15T03:47:00.053Z,67.45
2023-08-15T03:48:32.600Z,67.14
2023-08-15T03:50:06.490Z,67.17
2023-08-15T03:51:47.015Z,67.28
2023-08-15T03:53:23.657Z,67.13
2023-08-15T03:54:56.492Z,67.18
2023-08-15T03:56:30.638Z,67.53
2023-08-15T03:58:02.873Z,67.27
2023-08-15T03:59:36.128Z,67.87
2023-08-15T04:01:09.992Z,67.90
2023-08-15T04:02:43.162Z,68.08
2023-08-15T04:04:15.439Z,68.42
2023-08-15T04:05:49.473Z,68.28
2023-08-15T04:07:22.015Z,68.71
2023-08-15T04:08:56.168Z,69.06
2023-08-15T04:10:28.322Z,68.89
2023-08-15T04:12:01.554Z,68.47
2023-08-15T04:13:34.757Z,68.34
2023-08-15T04:15:07.557Z,68.19
2023-08-15T04:16:42.787Z,67.97
2023-08-15T04:18:15.124Z,67.72
2023-08-15T04:19:48.438Z,67.57
2023-08-15T04:21:21.792Z,67.49
2023-08-15T04:22:55.089Z,67.68
2023-08-15T04:24:31.886Z,67.60
2023-08-15T04:26:04.820Z,67.61
2023-08-15T04:27:38.761Z,67.71
2023-08-15T04:29:11.041Z,68.10
2023-08-15T04:30:44.361Z,67.91
2023-08-15T04:32:18.055Z,67.81
2023-08-15T04:33:51.245Z,68.40
2023-08-15T04:35:23.584Z,68.11
2023-08-15T04:36:57.052Z,68.01
2023-08-15T04:38:30.610Z,67.81
2023-08-15T04:40:04.060Z,67.81
2023-08-15T04:41:38.187Z,67.58
2023-08-15T04:43:10.527Z,67.45
2023-08-15T04:44:43.819Z,67.18
2023-08-15T04:46:16.050Z,67.19
2023-08-15T04:47:50.861Z,67.41
2023-08-15T04:49:24.081Z,67.87
2023-08-15T04:50:57.327Z,67.79
2023-08-15T04:52:30.670Z,68.29
2023-08-15T04:54:02.862Z,68.23
2023-08-15T04:55:36.699Z,68.20
2023-08-15T04:57:09.071Z,67.84
2023-08-15T04:58:42.234Z,67.82
2023-08-15T05:00:16.917Z,68.15
2023-08-15T05:01:50.272Z,68.07
2023-08-15T05:03:24.199Z,68.16
2023-08-15T05:04:57.415Z,67.99
2023-08-15T05:06:29.623Z,68.43
2023-08-15T05:08:02.902Z,68.25
2023-08-15T05:09:35.281Z,68.28
2023-08-15T05:11:09.593Z,67.87
2023-08-15T05:12:41.834Z,67.65
2023-08-15T05:14:16.360Z,67.86
2023-08-15T05:15:49.894Z,67.69
2023-08-15T05:17:22.554Z,67.43
2023-08-15T05:18:57.483Z,67.32
2023-08-15T05:20:29.706Z,67.47
2023-08-15T05:22:03.233Z,67.56
2023-08-15T05:23:36.433Z,67.27
2023-08-15T05:25:11.306Z,67.14
2023-08-15T05:26:49.952Z,67.30
2023-08-15T05:28:23.439Z,67.27
2023-08-15T05:29:55.682Z,67.07
2023-08-15T05:31:29.048Z,66.73
2023-08-15T05:33:01.576Z,66.76
2023-08-15T05:34:36.454Z,66.58
2023-08-15T05:36:09.697Z,66.57
2023-08-15T05:37:42.030Z,66.54
2023-08-15T05:39:15.200Z,66.75
2023-08-15T05:40:47.571Z,66.80
2023-08-15T05:42:20.752Z,66.77
2023-08-15T05:43:52.960Z,66.55
2023-08-15T05:45:26.158Z,66.30
2023-08-15T05:46:58.713Z,66.22
2023-08-15T05:48:32.022Z,66.00
2023-08-15T05:50:06.487Z,66.15
2023-08-15T05:51:39.730Z,66.18
2023-08-15T05:53:11.978Z,65.81
2023-08-15T05:54:45.318Z,65.41
2023-08-15T05:56:17.812Z,65.23
2023-08-15T05:57:51.041Z,65.07
2023-08-15T05:59:23.288Z,65.28
2023-08-15T06:00:56.624Z,65.10
2023-08-15T06:02:30.238Z,64.78
2023-08-15T06:04:03.708Z,64.72
2023-08-15T06:05:37.505Z,64.53
2023-08-15T06:07:10.753Z,64.68
2023-08-15T06:08:42.977Z,64.69
2023-08-15T06:10:16.253Z,64.51
2023-08-15T06:11:51.125Z,64.06
2023-08-15T06:13:23.308Z,64.27
2023-08-15T06:14:56.565Z,63.64
2023-08-15T06:16:28.875Z,63.60
2023-08-15T06:18:02.265Z,63.61
2023-08-15T06:19:34.492Z,63.26
2023-08-15T06:21:09.064Z,63.33
2023-08-15T06:22:41.267Z,63.18
2023-08-15T06:24:15.540Z,62.93
2023-08-15T06:25:47.842Z,62.62
2023-08-15T06:27:21.265Z,62.21
2023-08-15T06:28:54.556Z,62.48
2023-08-15T06:30:27.018Z,62.38
2023-08-15T06:32:00.877Z,62.08
2023-08-15T06:33:33.111Z,62.19
2023-08-15T06:35:07.769Z,62.07
2023-08-15T06:36:41.501Z,61.57
2023-08-15T06:38:14.716Z,61.29
2023-08-15T06:39:46.939Z,60.97
2023-08-15T06:41:20.498Z,61.27
2023-08-15T06:42:52.835Z,60.43
2023-08-15T06:44:27.532Z,60.92
2023-08-15T06:45:59.941Z,60.61
2023-08-15T06:47:33.171Z,59.79
2023-08-15T06:49:05.435Z,60.09
2023-08-15T06:50:38.581Z,59.50
2023-08-15T06:52:12.128Z,59.10
2023-08-15T06:53:46.304Z,58.92
2023-08-15T06:55:18.714Z,58.95
2023-08-15T06:56:52.300Z,58.62
2023-08-15T06:58:25.697Z,58.38
2023-08-15T06:59:57.934Z,57.96
2023-08-15T07:01:31.302Z,57.92
2023-08-15T07:03:03.826Z,57.30
2023-08-15T07:04:41.380Z,57.52
2023-08-15T07:06:14.643Z,57.40
2023-08-15T07:07:48.261Z,57.03
2023-08-15T07:09:21.695Z,56.73
2023-08-15T07:10:55.726Z,56.34
2023-08-15T07:12:28.926Z,56.10
2023-08-15T07:14:02.143Z,55.58
2023-08-15T07:15:34.459Z,56.47
2023-08-15T07:17:07.708Z,55.80
2023-08-15T07:18:40.921Z,55.35
2023-08-15T07:20:15.508Z,55.74
2023-08-15T07:21:48.875Z,55.46
2023-08-15T07:23:23.452Z,55.80
2023-08-15T07:24:55.681Z,55.13
2023-08-15T07:26:29.104Z,55.07
2023-08-15T07:28:01.226Z,55.06
2023-08-15T07:29:34.494Z,54.82
2023-08-15T07:31:06.904Z,54.51
2023-08-15T07:32:40.138Z,54.32
2023-08-15T07:34:13.471Z,53.87
2023-08-15T07:35:45.695Z,53.91
2023-08-15T07:37:18.951Z,53.88
2023-08-15T07:38:53.657Z,53.73
2023-08-15T07:40:25.980Z,53.16
2023-08-15T07:41:59.225Z,53.23
2023-08-15T07:43:31.495Z,53.37
2023-08-15T07:45:05.349Z,53.02
2023-08-15T07:46:38.534Z,52.73
2023-08-15T07:48:11.794Z,52.69
2023-08-15T07:49:43.995Z,52.34
2023-08-15T07:51:17.368Z,51.82
2023-08-15T07:52:50.322Z,51.54
2023-08-15T07:54:25.377Z,50.35
2023-08-15T07:55:58.291Z,49.17
2023-08-15T07:57:32.259Z,48.52
2023-08-15T07:59:05.858Z,49.64
2023-08-15T08:00:38.153Z,48.37
2023-08-15T08:02:11.359Z,47.01
2023-08-15T08:03:45.289Z,45.94
2023-08-15T08:05:17.734Z,44.94
2023-08-15T08:06:50.936Z,41.93
2023-08-15T08:08:24.163Z,42.51
2023-08-15T08:09:58.627Z,44.09
2023-08-15T08:11:31.837Z,42.62
2023-08-15T08:13:07.630Z,42.21
2023-08-15T08:14:48.712Z,43.71
2023-08-15T08:16:31.073Z,43.05
2023-08-15T08:18:03.398Z,42.43
2023-08-15T08:19:36.689Z,42.33
2023-08-15T08:21:10.844Z,41.08
2023-08-15T08:22:44.167Z,40.42
2023-08-15T08:24:17.367Z,38.81
2023-08-15T08:25:51.023Z,39.89
2023-08-15T08:27:24.319Z,38.21
2023-08-15T08:28:57.338Z,39.03
2023-08-15T08:30:31.963Z,37.80
2023-08-15T08:32:05.136Z,38.62
2023-08-15T08:33:38.485Z,37.97
2023-08-15T08:35:12.288Z,39.04
2023-08-15T08:36:45.588Z,38.42
2023-08-15T08:38:19.424Z,37.88
2023-08-15T08:39:54.072Z,38.22
2023-08-15T08:41:28.810Z,38.89
2023-08-15T08:43:02.363Z,38.66
2023-08-15T08:44:36.938Z,38.12
2023-08-15T08:46:10.830Z,38.58
2023-08-15T08:47:45.125Z,38.61
2023-08-15T08:49:20.257Z,38.22
2023-08-15T08:50:53.253Z,37.73
2023-08-15T08:52:27.039Z,37.47
2023-08-15T08:54:01.097Z,37.87
2023-08-15T08:55:35.703Z,37.36
2023-08-15T08:57:11.849Z,36.94
2023-08-15T08:58:50.885Z,37.37
2023-08-15T09:00:29.869Z,37.78
2023-08-15T09:02:03.670Z,38.05
2023-08-15T09:03:36.177Z,37.87
2023-08-15T09:05:10.401Z,37.83
2023-08-15T09:06:43.668Z,37.62
2023-08-15T09:08:16.892Z,37.16
2023-08-15T09:09:49.120Z,37.46
2023-08-15T09:11:22.540Z,37.90
2023-08-15T09:13:00.378Z,37.89
2023-08-15T09:14:33.661Z,37.31
2023-08-15T09:16:06.482Z,37.47
2023-08-15T09:17:40.611Z,37.11
2023-08-15T09:19:13.005Z,38.19
2023-08-15T09:20:47.634Z,37.63
2023-08-15T09:22:22.785Z,37.51
2023-08-15T09:23:56.774Z,38.04
2023-08-15T09:25:31.700Z,37.80
2023-08-15T09:27:06.036Z,37.70
2023-08-15T09:28:42.961Z,37.91
2023-08-15T09:30:18.185Z,38.01
2023-08-15T09:31:52.071Z,38.58
2023-08-15T09:33:24.260Z,38.22
2023-08-15T09:34:57.517Z,38.00
2023-08-15T09:36:33.684Z,38.41
2023-08-15T09:38:07.553Z,38.72
2023-08-15T09:39:41.576Z,38.49
2023-08-15T09:41:13.868Z,38.65
2023-08-15T09:42:48.108Z,38.39
2023-08-15T09:44:31.638Z,38.69
2023-08-15T09:46:04.883Z,38.45
2023-08-15T09:47:38.691Z,39.09
2023-08-15T09:49:12.082Z,39.26
2023-08-15T09:50:46.802Z,39.16
2023-08-15T09:52:20.646Z,39.48
2023-08-15T09:53:55.187Z,39.00
2023-08-15T09:55:28.976Z,39.43
2023-08-15T09:57:02.357Z,39.58
2023-08-15T09:58:34.528Z,39.76
2023-08-15T10:00:13.562Z,39.89
2023-08-15T10:01:52.950Z,40.07
2023-08-15T10:03:31.230Z,39.72
2023-08-15T10:05:04.899Z,39.92
2023-08-15T10:06:38.475Z,40.18
2023-08-15T10:08:11.392Z,40.59
2023-08-15T10:09:45.180Z,40.81
2023-08-15T10:11:19.089Z,41.13
2023-08-15T10:12:53.252Z,40.80
2023-08-15T10:14:25.932Z,41.17
2023-08-15T10:16:01.364Z,40.93
2023-08-15T10:17:33.756Z,41.23
2023-08-15T10:19:07.077Z,41.88
2023-08-15T10:20:40.457Z,41.08
2023-08-15T10:22:13.860Z,41.45
2023-08-15T10:23:46.155Z,41.95
2023-08-15T10:25:36.553Z,42.77
2023-08-15T10:27:12.348Z,41.89
2023-08-15T10:28:47.325Z,42.30
2023-08-15T10:30:31.207Z,42.48
2023-08-15T10:32:06.524Z,42.20
2023-08-15T10:33:39.672Z,42.77
2023-08-15T10:35:14.692Z,42.36
2023-08-15T10:36:47.960Z,42.65
2023-08-15T10:38:21.873Z,42.68
2023-08-15T10:40:08.323Z,43.40
2023-08-15T10:41:43.396Z,42.88
2023-08-15T10:43:16.910Z,42.78
2023-08-15T10:45:00.936Z,43.67
2023-08-15T10:46:36.055Z,42.58
2023-08-15T10:48:11.025Z,42.72
2023-08-15T10:49:48.607Z,43.61
2023-08-15T10:51:22.757Z,43.26
2023-08-15T10:52:59.930Z,44.03
2023-08-15T10:54:33.306Z,43.64
2023-08-15T10:56:06.152Z,43.61
2023-08-15T10:57:39.674Z,43.05
2023-08-15T10:59:14.494Z,43.31
2023-08-15T11:00:47.268Z,43.64
2023-08-15T11:02:20.657Z,43.42
2023-08-15T11:03:57.926Z,43.87
2023-08-15T11:05:30.295Z,43.65
2023-08-15T11:07:03.695Z,43.84
2023-08-15T11:08:41.155Z,44.06
2023-08-15T11:10:14.583Z,43.80
2023-08-15T11:11:47.898Z,43.65
2023-08-15T11:13:20.444Z,43.35
2023-08-15T11:14:53.648Z,43.54
2023-08-15T11:16:25.935Z,44.04
2023-08-15T11:17:59.338Z,43.49
2023-08-15T11:19:35.539Z,43.92
2023-08-15T11:21:11.199Z,43.78
2023-08-15T11:22:44.473Z,43.79
2023-08-15T11:24:17.734Z,43.71
2023-08-15T11:25:50.010Z,43.99
2023-08-15T11:27:23.520Z,43.83
2023-08-15T11:28:57.137Z,44.15
2023-08-15T11:30:30.066Z,43.80
2023-08-15T11:32:04.623Z,43.90
2023-08-15T11:33:37.320Z,43.79
2023-08-15T11:35:19.735Z,43.27
2023-08-15T11:36:52.492Z,43.79
2023-08-15T11:38:26.399Z,42.94
2023-08-15T11:39:58.732Z,43.23
2023-08-15T11:41:36.484Z,43.20
2023-08-15T11:43:09.341Z,43.71
2023-08-15T11:44:42.585Z,43.69
2023-08-15T11:46:15.873Z,43.48
2023-08-15T11:47:58.861Z,43.34
2023-08-15T11:49:42.335Z,43.44
2023-08-15T11:51:23.379Z,43.30
2023-08-15T11:52:56.045Z,43.60
2023-08-15T11:54:29.285Z,43.24
2023-08-15T11:56:01.531Z,43.68
2023-08-15T11:57:37.800Z,43.66
2023-08-15T11:59:18.216Z,43.73
2023-08-15T12:00:52.773Z,44.03
2023-08-15T12:02:26.049Z,43.86
2023-08-15T12:04:01.386Z,43.37
2023-08-15T12:05:33.868Z,43.70
2023-08-15T12:11:01.146Z,43.56
2023-08-15T12:12:39.461Z,43.13
2023-08-15T12:14:20.195Z,43.45
2023-08-15T12:15:53.655Z,43.67
2023-08-15T12:17:28.413Z,43.10
2023-08-15T12:19:01.815Z,42.92
2023-08-15T12:20:35.213Z,43.19
2023-08-15T12:22:09.051Z,42.94
2023-08-15T12:23:42.331Z,43.29
2023-08-15T12:25:15.528Z,43.07
2023-08-15T12:26:47.733Z,42.65
2023-08-15T12:28:21.110Z,42.89
2023-08-15T12:30:12.404Z,42.55
2023-08-15T12:31:46.676Z,42.61
2023-08-15T12:33:35.058Z,43.16
2023-08-15T12:35:13.083Z,42.82
2023-08-15T12:36:45.394Z,42.44
2023-08-15T12:38:20.090Z,42.38
2023-08-15T12:39:52.689Z,42.37
2023-08-15T12:41:26.109Z,42.55
2023-08-15T12:42:58.570Z,42.06
2023-08-15T12:44:32.056Z,42.42
2023-08-15T12:46:04.230Z,42.79
2023-08-15T12:47:37.930Z,42.36
2023-08-15T12:49:10.949Z,42.35
2023-08-15T12:50:44.265Z,41.95
2023-08-15T12:52:17.425Z,42.49
2023-08-15T12:53:51.093Z,41.92
2023-08-15T12:55:24.868Z,42.12
2023-08-15T12:56:57.440Z,41.97
2023-08-15T12:58:30.578Z,42.19
2023-08-15T13:00:03.905Z,42.20
2023-08-15T13:01:38.850Z,41.51
2023-08-15T13:03:14.329Z,41.52
2023-08-15T13:04:47.613Z,42.01
2023-08-15T13:06:20.203Z,41.27
2023-08-15T13:07:53.770Z,41.13
2023-08-15T13:09:28.550Z,41.19
2023-08-15T13:11:00.827Z,41.16
2023-08-15T13:12:34.315Z,41.39
2023-08-15T13:14:06.620Z,41.51
2023-08-15T13:15:39.864Z,40.68
2023-08-15T13:17:12.805Z,40.85
2023-08-15T13:18:46.249Z,40.84
2023-08-15T13:20:19.441Z,41.18
2023-08-15T13:21:51.877Z,40.59
2023-08-15T13:23:25.026Z,40.74
2023-08-15T13:24:58.766Z,40.38
2023-08-15T13:26:32.008Z,40.50
2023-08-15T13:28:04.684Z,40.66
2023-08-15T13:29:37.831Z,40.90
2023-08-15T13:31:10.308Z,40.46
2023-08-15T13:32:43.545Z,40.70
2023-08-15T13:34:18.488Z,40.48
2023-08-15T13:35:50.809Z,40.96
2023-08-15T13:37:24.250Z,40.26
2023-08-15T13:38:57.596Z,40.72
2023-08-15T13:40:32.195Z,40.45
2023-08-15T13:42:04.770Z,40.72
2023-08-15T13:43:38.128Z,40.44
2023-08-15T13:45:10.911Z,40.26
2023-08-15T13:46:44.992Z,40.34
2023-08-15T13:48:17.721Z,40.41
2023-08-15T13:49:51.048Z,40.25
2023-08-15T13:51:23.327Z,40.26
2023-08-15T13:52:56.546Z,40.69
2023-08-15T13:54:30.198Z,40.67
2023-08-15T13:56:04.465Z,40.30
2023-08-15T13:57:37.652Z,40.02
2023-08-15T13:59:09.848Z,40.54
2023-08-15T14:00:43.082Z,40.63
2023-08-15T14:02:16.038Z,40.18
2023-08-15T14:03:49.412Z,40.27
2023-08-15T14:05:21.768Z,40.11
2023-08-15T14:06:59.912Z,40.47
2023-08-15T14:08:33.865Z,40.62
2023-08-15T14:10:06.835Z,40.41
2023-08-15T14:11:41.532Z,40.43
2023-08-15T14:13:13.760Z,40.41
2023-08-15T14:14:47.097Z,40.66
2023-08-15T14:16:21.492Z,40.54
2023-08-15T14:17:53.746Z,40.37
2023-08-15T14:19:26.975Z,40.80
2023-08-15T14:20:59.417Z,40.37
2023-08-15T14:22:32.599Z,40.20
2023-08-15T14:24:06.251Z,40.55
2023-08-15T14:25:39.552Z,40.58
2023-08-15T14:27:13.414Z,40.30
2023-08-15T14:28:46.598Z,40.38
2023-08-15T14:30:18.991Z,40.12
2023-08-15T14:31:52.213Z,40.11
2023-08-15T14:33:28.461Z,40.29
2023-08-15T14:35:00.614Z,39.94
2023-08-15T14:36:33.854Z,40.33
2023-08-15T14:38:07.482Z,39.95
2023-08-15T14:39:39.981Z,40.67
2023-08-15T14:41:13.509Z,40.39
2023-08-15T14:42:47.125Z,40.75
2023-08-15T14:44:20.369Z,40.93
2023-08-15T14:45:53.028Z,41.26
2023-08-15T14:47:30.691Z,41.40
2023-08-15T14:49:05.198Z,40.94
2023-08-15T14:50:38.416Z,41.95
2023-08-15T14:52:11.450Z,41.67
2023-08-15T14:53:44.658Z,41.80
2023-08-15T14:55:18.058Z,41.69
2023-08-15T14:56:50.241Z,41.78
2023-08-15T14:58:25.119Z,41.55
2023-08-15T14:59:57.298Z,41.85
2023-08-15T15:01:30.558Z,41.88
2023-08-15T15:03:04.273Z,41.48
2023-08-15T15:04:36.741Z,41.92
2023-08-15T15:06:09.994Z,41.86
2023-08-15T15:07:43.193Z,42.04
2023-08-15T15:09:15.477Z,41.94
2023-08-15T15:10:52.487Z,42.30
2023-08-15T15:12:24.631Z,41.72
2023-08-15T15:13:59.251Z,41.80
2023-08-15T15:15:46.041Z,42.28
2023-08-15T15:17:25.077Z,42.21
2023-08-15T15:18:57.364Z,42.01
2023-08-15T15:20:30.970Z,41.63
2023-08-15T15:22:03.253Z,42.05
2023-08-15T15:23:36.712Z,41.92
2023-08-15T15:25:09.779Z,42.10
2023-08-15T15:26:43.014Z,41.61
2023-08-15T15:28:15.775Z,41.96
2023-08-15T15:29:50.590Z,41.77
2023-08-15T15:31:22.964Z,42.20
2023-08-15T15:32:56.213Z,42.17
2023-08-15T15:34:28.642Z,41.81
2023-08-15T15:36:01.993Z,42.07
2023-08-15T15:37:35.373Z,42.11
2023-08-15T15:39:09.426Z,42.56
2023-08-15T15:40:41.652Z,42.11
2023-08-15T15:42:15.118Z,42.72
2023-08-15T15:43:48.999Z,42.74
2023-08-15T15:45:23.828Z,42.77
2023-08-15T15:46:56.195Z,42.70
2023-08-15T15:48:29.566Z,43.20
2023-08-15T15:50:01.898Z,43.14
2023-08-15T15:51:35.128Z,42.96
2023-08-15T15:53:08.429Z,43.04
2023-08-15T15:54:41.027Z,43.33
2023-08-15T15:56:14.261Z,43.04
2023-08-15T15:57:46.518Z,43.05
2023-08-15T15:59:19.653Z,43.47
2023-08-15T16:00:55.893Z,43.32
2023-08-15T16:02:29.101Z,43.69
2023-08-15T16:04:01.550Z,43.66
2023-08-15T16:05:34.764Z,43.79
2023-08-15T16:07:09.697Z,43.51
2023-08-15T16:08:43.864Z,43.83
2023-08-15T16:10:17.176Z,43.98
2023-08-15T16:11:49.580Z,43.55
2023-08-15T16:13:24.199Z,43.71
2023-08-15T16:14:56.473Z,44.17
2023-08-15T16:16:31.043Z,44.28
2023-08-15T16:18:03.492Z,44.02
2023-08-15T16:19:37.054Z,44.26
2023-08-15T16:21:09.326Z,43.91
2023-08-15T16:22:42.538Z,44.03
2023-08-15T16:24:14.887Z,44.01
2023-08-15T16:25:48.442Z,44.04
2023-08-15T16:27:20.997Z,44.39
2023-08-15T16:28:54.155Z,44.08
2023-08-15T16:30:27.396Z,44.44
2023-08-15T16:32:02.186Z,44.33
2023-08-15T16:33:34.330Z,44.36
2023-08-15T16:35:08.358Z,44.42
2023-08-15T16:36:40.534Z,44.35
2023-08-15T16:38:16.063Z,44.83
2023-08-15T16:39:48.621Z,44.76
2023-08-15T16:41:21.826Z,45.04
2023-08-15T16:43:09.418Z,45.05
2023-08-15T16:44:43.005Z,44.60
2023-08-15T16:46:16.615Z,44.75
2023-08-15T16:47:50.346Z,44.67
2023-08-15T16:49:25.091Z,45.10
2023-08-15T16:50:58.401Z,45.17
2023-08-15T16:52:30.616Z,45.29
2023-08-15T16:54:03.942Z,45.14
2023-08-15T16:55:36.158Z,44.92
2023-08-15T16:57:09.540Z,45.37
2023-08-15T16:58:42.704Z,45.38
2023-08-15T17:00:15.759Z,45.43
2023-08-15T17:01:48.985Z,45.49
2023-08-15T17:03:23.743Z,45.81
2023-08-15T17:04:56.225Z,45.81
2023-08-15T17:06:29.469Z,45.48
2023-08-15T17:08:01.740Z,45.74
2023-08-15T17:09:35.069Z,45.66
2023-08-15T17:11:08.357Z,45.66
2023-08-15T17:12:40.721Z,45.61
2023-08-15T17:14:13.993Z,45.96
2023-08-15T17:15:46.561Z,45.96
2023-08-15T17:17:19.802Z,46.03
2023-08-15T17:18:53.425Z,46.05
2023-08-15T17:20:26.725Z,46.40
2023-08-15T17:22:00.215Z,46.47
2023-08-15T17:23:33.474Z,47.06
2023-08-15T17:25:06.681Z,47.34
2023-08-15T17:26:39.889Z,47.40
2023-08-15T17:28:12.324Z,47.96
2023-08-15T17:29:45.570Z,47.64
2023-08-15T17:31:18.870Z,48.35
2023-08-15T17:32:51.231Z,48.17
2023-08-15T17:34:26.011Z,48.43
2023-08-15T17:35:58.209Z,48.42
2023-08-15T17:37:31.434Z,48.48
2023-08-15T17:39:04.254Z,49.15
2023-08-15T17:40:37.548Z,48.95
2023-08-15T17:42:09.792Z,49.12
2023-08-15T17:43:42.988Z,48.88
2023-08-15T17:45:15.320Z,48.44
2023-08-15T17:46:48.638Z,49.46
2023-08-15T17:48:21.997Z,49.19
2023-08-15T17:49:55.626Z,49.05
2023-08-15T17:51:28.844Z,49.34
2023-08-15T17:53:01.337Z,49.64
2023-08-15T17:54:34.545Z,49.27
2023-08-15T17:56:06.747Z,49.38
2023-08-15T17:57:39.916Z,49.29
2023-08-15T17:59:12.476Z,49.77
2023-08-15T18:00:45.633Z,49.82
2023-08-15T18:02:18.858Z,49.55
2023-08-15T18:03:51.310Z,50.10
2023-08-15T18:05:27.493Z,49.89
2023-08-15T18:06:59.763Z,49.80
2023-08-15T18:08:32.984Z,49.90
2023-08-15T18:10:06.806Z,49.73
2023-08-15T18:11:39.316Z,49.73
2023-08-15T18:13:12.598Z,50.16
2023-08-15T18:14:45.860Z,50.02
2023-08-15T18:16:18.075Z,49.57
2023-08-15T18:17:53.312Z,49.95
2023-08-15T18:19:25.881Z,50.25
2023-08-15T18:21:01.926Z,49.87
2023-08-15T18:22:34.242Z,50.16
2023-08-15T18:24:08.287Z,49.90
2023-08-15T18:25:40.456Z,50.48
2023-08-15T18:27:13.685Z,50.82
2023-08-15T18:28:45.951Z,51.34
2023-08-15T18:30:19.526Z,51.40
2023-08-15T18:31:51.951Z,51.39
2023-08-15T18:33:25.242Z,51.73
2023-08-15T18:34:57.412Z,51.61
2023-08-15T18:36:32.140Z,52.04
2023-08-15T18:38:04.605Z,52.41
2023-08-15T18:39:37.814Z,52.11
2023-08-15T18:41:10.042Z,52.59
2023-08-15T18:42:43.466Z,52.68
2023-08-15T18:44:16.522Z,52.68
2023-08-15T18:45:49.733Z,53.17
2023-08-15T18:47:22.079Z,52.91
2023-08-15T18:48:55.833Z,53.20
2023-08-15T18:50:29.094Z,53.48
2023-08-15T18:52:02.809Z,53.73
2023-08-15T18:53:35.969Z,54.16
2023-08-15T18:55:09.402Z,54.04
2023-08-15T18:56:42.613Z,53.97
2023-08-15T18:58:14.849Z,54.02
2023-08-15T18:59:48.025Z,53.80
2023-08-15T19:01:20.395Z,54.20
2023-08-15T19:02:53.918Z,54.08
2023-08-15T19:04:27.311Z,54.96
2023-08-15T19:05:59.788Z,54.25
2023-08-15T19:07:34.641Z,54.54
2023-08-15T19:09:06.873Z,54.69
2023-08-15T19:10:40.385Z,54.74
2023-08-15T19:12:12.663Z,55.19
2023-08-15T19:13:45.965Z,55.08
2023-08-15T19:15:18.716Z,55.00
2023-08-15T19:16:52.158Z,55.34
2023-08-15T19:18:24.456Z,55.39
2023-08-15T19:19:58.132Z,55.73
2023-08-15T19:21:30.413Z,55.63
2023-08-15T19:23:05.246Z,55.49
2023-08-15T19:24:37.417Z,55.79
2023-08-15T19:26:10.960Z,55.79
2023-08-15T19:27:43.504Z,55.76
2023-08-15T19:29:16.679Z,55.15
2023-08-15T19:30:48.904Z,55.85
2023-08-15T19:32:22.418Z,55.95
2023-08-15T19:33:55.801Z,56.16
2023-08-15T19:35:28.335Z,55.75
2023-08-15T19:37:01.585Z,56.25
2023-08-15T19:38:40.612Z,56.38
2023-08-15T19:40:13.393Z,56.33
2023-08-15T19:41:47.564Z,56.34
2023-08-15T19:43:20.725Z,56.26
2023-08-15T19:44:53.020Z,56.44
2023-08-15T19:46:26.297Z,56.02
2023-08-15T19:47:58.895Z,56.42
2023-08-15T19:49:33.584Z,56.62
2023-08-15T19:51:05.939Z,56.38
2023-08-15T19:52:39.613Z,56.22
2023-08-15T19:54:13.188Z,56.35
2023-08-15T19:55:46.438Z,56.51
2023-08-15T19:57:18.831Z,56.48
2023-08-15T19:58:52.065Z,56.27
2023-08-15T20:00:24.276Z,56.75
2023-08-15T20:01:57.516Z,56.73
2023-08-15T20:05:03.363Z,57.01
2023-08-15T20:06:35.649Z,57.09
2023-08-15T20:08:08.864Z,57.04
2023-08-15T20:09:48.788Z,57.04
2023-08-15T20:11:28.982Z,57.15
2023-08-15T20:13:02.174Z,56.86
2023-08-15T20:14:34.350Z,57.23